Startpagina
METAR-TAF:

METAR-TAF

Vliegvelden :

Morlaix, Frankrijk

breedte: 48-36N, lengte: 3-49W, hoogte: 84 m

Actueel weer

Dit bericht is 28 minuten geleden gemaakt, om 17:30 UTC
Wind 8 kt uit het noordnoordoosten
Temperatuur 15°C
Vochtigheid 88%
Druk 1005 hPa
Zicht 10 km of meer
Verspreide wolken op 1100 ft
Gebroken wolken op 3200 ft
Gebroken wolken op 7400 ft

METAR: LFRU 031730Z AUTO 02008KT 9999 SCT011 BKN032 BKN074 15/13 Q1005

Tijdstip: 19:58 (17:58 UTC)


TAF: ontbreekt

Waarnemingen en weersverwachtingen van meer dan 4000 vliegvelden (METAR en TAF).

De beschikbare stations zijn de gele en rode punten op de kaart.

Ga met uw muis naar het station om de naam te zien.

Klik dan om waarnemingen en weersverwachtingen te zien.

kaart wijzigen: klik op de groene knoppen met een zwart kruis om in te zoomen, op de groene knop met een streepje om uit te zoomen of op de groene pijlen voor aangrenzende kaarten.


METAR-TAF: